Wittenoom, Australia
Current Conditions -  °F | °C
As of 1:00 PM on Saturday 20 Dec 2014 (Local Time) from YPBO Reporting Station
Clear Clear  
Wind Chill: 104°   Ceiling: Unl
Heat Index: 104°   Visibility: 6mi
Dew Point: 48°   Wind: 10mph
Humidity: 15%   Direction: 280°W
Pressure: 29.77"   Gusts: NA
Location:  22.24°S, 118.34°E
Report Text: YPBO 200500Z AUTO 28009KT 240V320 9999 // NCD 40/09 Q1008
Loading
Personal Weather Stations






























Interactive Weather Map New forecast layout! Learn more

10-Day Weather Forecast

Advertisements
Track Severe Weather on mobile